createdAt,value
2023-03-11T00:01:18.339Z,10.90
2023-03-11T00:03:45.401Z,9.20
2023-03-11T00:06:14.646Z,9.40
2023-03-11T00:08:44.169Z,8.40
2023-03-11T00:11:12.278Z,8.20
2023-03-11T00:13:45.267Z,8.20
2023-03-11T00:16:13.256Z,8.30
2023-03-11T00:18:51.932Z,8.10
2023-03-11T00:21:19.846Z,8.40
2023-03-11T00:23:48.350Z,7.40
2023-03-11T00:26:16.500Z,8.20
2023-03-11T00:28:48.053Z,7.60
2023-03-11T00:31:26.332Z,7.00
2023-03-11T00:34:18.270Z,7.10
2023-03-11T00:36:48.931Z,7.20
2023-03-11T00:39:17.376Z,7.20
2023-03-11T00:41:46.433Z,8.10
2023-03-11T00:44:17.157Z,7.00
2023-03-11T00:46:45.606Z,7.90
2023-03-11T00:49:16.677Z,7.60
2023-03-11T00:51:44.564Z,6.90
2023-03-11T00:54:16.916Z,7.00
2023-03-11T00:56:46.783Z,8.10
2023-03-11T00:59:18.767Z,7.70
2023-03-11T01:01:47.409Z,6.70
2023-03-11T01:04:15.597Z,6.40
2023-03-11T01:06:45.784Z,7.20
2023-03-11T01:09:14.669Z,7.20
2023-03-11T01:11:44.821Z,6.50
2023-03-11T01:14:12.423Z,7.50
2023-03-11T01:16:40.305Z,7.50
2023-03-11T01:19:12.027Z,7.90
2023-03-11T01:21:43.363Z,7.20
2023-03-11T01:24:13.142Z,8.70
2023-03-11T01:26:42.118Z,9.20
2023-03-11T01:29:09.841Z,7.40
2023-03-11T01:31:38.018Z,7.80
2023-03-11T01:34:05.460Z,7.20
2023-03-11T01:36:35.656Z,7.50
2023-03-11T01:39:07.342Z,8.10
2023-03-11T01:41:35.907Z,7.70
2023-03-11T01:44:05.891Z,7.80
2023-03-11T01:46:54.493Z,7.50
2023-03-11T01:52:03.265Z,7.80
2023-03-11T01:54:37.063Z,7.10
2023-03-11T01:57:06.359Z,6.90
2023-03-11T01:59:40.791Z,7.50
2023-03-11T02:02:25.514Z,7.00
2023-03-11T02:04:55.436Z,6.20
2023-03-11T02:07:25.485Z,6.70
2023-03-11T02:10:01.662Z,7.30
2023-03-11T02:12:32.351Z,7.40
2023-03-11T02:15:01.202Z,5.90
2023-03-11T02:17:36.101Z,7.30
2023-03-11T02:20:25.608Z,7.10
2023-03-11T02:22:56.813Z,6.30
2023-03-11T02:25:34.275Z,6.90
2023-03-11T02:28:09.504Z,5.70
2023-03-11T02:30:42.715Z,8.50
2023-03-11T02:33:10.822Z,7.80
2023-03-11T02:35:40.206Z,7.20
2023-03-11T02:38:09.632Z,8.40
2023-03-11T02:40:45.366Z,7.90
2023-03-11T02:43:14.268Z,8.50
2023-03-11T02:45:45.602Z,7.60
2023-03-11T02:48:14.080Z,8.00
2023-03-11T02:50:44.196Z,8.00
2023-03-11T02:53:13.527Z,7.30
2023-03-11T02:55:41.213Z,8.50
2023-03-11T02:58:11.331Z,8.50
2023-03-11T03:00:39.467Z,7.70
2023-03-11T03:03:10.350Z,7.80
2023-03-11T03:05:38.173Z,8.60
2023-03-11T03:08:08.142Z,6.50
2023-03-11T03:10:35.635Z,6.90
2023-03-11T03:13:08.310Z,8.90
2023-03-11T03:15:39.026Z,8.30
2023-03-11T03:18:08.787Z,8.60
2023-03-11T03:20:39.502Z,8.60
2023-03-11T03:23:09.317Z,8.40
2023-03-11T03:25:37.465Z,8.60
2023-03-11T03:28:07.114Z,8.50
2023-03-11T03:30:39.567Z,9.30
2023-03-11T03:33:07.003Z,8.20
2023-03-11T03:35:43.706Z,8.50
2023-03-11T03:38:22.911Z,9.40
2023-03-11T03:40:52.482Z,9.00
2023-03-11T03:43:21.006Z,9.70
2023-03-11T03:46:01.373Z,9.40
2023-03-11T03:48:31.936Z,9.10
2023-03-11T03:51:04.377Z,10.40
2023-03-11T03:57:00.221Z,8.80
2023-03-11T03:59:31.162Z,9.30
2023-03-11T04:02:03.202Z,8.70
2023-03-11T04:07:10.431Z,9.30
2023-03-11T04:09:45.575Z,10.70
2023-03-11T04:12:14.598Z,10.40
2023-03-11T04:14:44.802Z,10.30
2023-03-11T04:17:38.159Z,10.50
2023-03-11T04:20:08.001Z,11.20
2023-03-11T04:22:40.079Z,11.20
2023-03-11T04:27:51.816Z,11.00
2023-03-11T04:30:24.457Z,11.00
2023-03-11T04:33:01.064Z,11.90
2023-03-11T04:35:30.734Z,13.60
2023-03-11T04:38:00.796Z,13.50
2023-03-11T04:40:32.009Z,13.40
2023-03-11T04:43:08.162Z,12.80
2023-03-11T04:45:38.425Z,13.40
2023-03-11T04:48:09.238Z,11.90
2023-03-11T04:50:36.880Z,10.10
2023-03-11T04:53:08.197Z,11.30
2023-03-11T04:58:10.396Z,11.20
2023-03-11T05:00:46.749Z,10.90
2023-03-11T05:03:18.618Z,10.40
2023-03-11T05:05:48.420Z,11.90
2023-03-11T05:08:20.544Z,10.30
2023-03-11T05:10:52.309Z,10.00
2023-03-11T05:13:30.543Z,11.20
2023-03-11T05:16:06.719Z,10.80
2023-03-11T05:18:35.062Z,11.90
2023-03-11T05:21:15.037Z,9.40
2023-03-11T05:23:49.375Z,10.70
2023-03-11T05:26:24.640Z,9.50
2023-03-11T05:28:59.491Z,9.60
2023-03-11T05:31:28.665Z,11.60
2023-03-11T05:34:01.927Z,11.50
2023-03-11T05:36:34.415Z,12.10
2023-03-11T05:39:05.403Z,11.50
2023-03-11T05:41:46.573Z,12.10
2023-03-11T05:44:17.688Z,12.30
2023-03-11T05:46:48.107Z,11.50
2023-03-11T05:49:16.872Z,12.10
2023-03-11T05:51:52.288Z,13.60
2023-03-11T05:54:20.664Z,14.40
2023-03-11T05:56:52.925Z,13.80
2023-03-11T05:59:23.862Z,13.80
2023-03-11T06:01:59.092Z,14.90
2023-03-11T06:04:31.296Z,15.10
2023-03-11T06:07:01.001Z,16.90
2023-03-11T06:09:39.290Z,20.10
2023-03-11T06:12:15.397Z,17.70
2023-03-11T06:15:07.588Z,16.10
2023-03-11T06:17:38.694Z,15.80
2023-03-11T06:20:09.340Z,15.80
2023-03-11T06:22:45.520Z,15.80
2023-03-11T06:25:15.838Z,14.70
2023-03-11T06:27:48.325Z,15.30
2023-03-11T06:30:20.679Z,10.80
2023-03-11T06:33:17.433Z,15.40
2023-03-11T06:36:00.616Z,13.90
2023-03-11T06:38:32.262Z,14.60
2023-03-11T06:41:07.689Z,16.90
2023-03-11T06:43:44.645Z,15.00
2023-03-11T06:46:22.247Z,16.40
2023-03-11T06:48:59.142Z,18.50
2023-03-11T06:51:36.111Z,17.70
2023-03-11T06:54:10.985Z,15.50
2023-03-11T06:56:43.840Z,14.40
2023-03-11T06:59:15.145Z,15.70
2023-03-11T07:01:47.857Z,12.80
2023-03-11T07:04:16.888Z,15.40
2023-03-11T07:06:47.871Z,13.60
2023-03-11T07:09:27.295Z,13.60
2023-03-11T07:11:55.869Z,12.80
2023-03-11T07:14:36.032Z,14.20
2023-03-11T07:17:10.369Z,12.50
2023-03-11T07:19:49.409Z,14.10
2023-03-11T07:22:25.320Z,11.90
2023-03-11T07:24:58.370Z,13.90
2023-03-11T07:27:27.528Z,14.20
2023-03-11T07:30:01.962Z,13.60
2023-03-11T07:32:34.854Z,14.00
2023-03-11T07:35:08.236Z,14.90
2023-03-11T07:37:39.736Z,14.90
2023-03-11T07:40:13.345Z,14.70
2023-03-11T07:42:40.780Z,15.60
2023-03-11T07:45:14.040Z,15.60
2023-03-11T07:47:49.648Z,16.70
2023-03-11T07:50:18.764Z,14.20
2023-03-11T16:14:43.933Z,20.00
2023-03-11T16:17:19.403Z,23.90
2023-03-11T16:20:21.509Z,21.50
2023-03-11T16:22:54.839Z,17.90
2023-03-11T16:25:38.511Z,13.50
2023-03-11T16:28:15.257Z,10.70
2023-03-11T16:30:49.596Z,9.00
2023-03-11T16:33:25.279Z,9.90
2023-03-11T16:36:02.623Z,11.30
2023-03-11T16:38:43.561Z,9.70
2023-03-11T16:41:43.417Z,9.10
2023-03-11T16:45:04.187Z,9.30
2023-03-11T16:48:00.513Z,10.20
2023-03-11T16:50:42.438Z,22.10
2023-03-11T16:53:23.706Z,14.40
2023-03-11T16:55:59.898Z,10.30
2023-03-11T16:58:28.260Z,10.30
2023-03-11T17:01:00.997Z,10.00
2023-03-11T17:03:42.780Z,9.80
2023-03-11T17:06:14.379Z,11.80
2023-03-11T17:08:53.154Z,11.40
2023-03-11T17:11:30.240Z,11.80
2023-03-11T17:14:13.628Z,11.10
2023-03-11T17:16:51.362Z,12.50
2023-03-11T17:19:24.215Z,12.40
2023-03-11T17:21:52.896Z,12.00
2023-03-11T17:24:27.736Z,11.20
2023-03-11T17:26:59.571Z,11.20
2023-03-11T17:29:32.321Z,10.80
2023-03-11T17:32:05.584Z,10.40
2023-03-11T17:34:36.684Z,10.20
2023-03-11T17:37:11.861Z,10.40
2023-03-11T17:39:45.629Z,10.70
2023-03-11T17:42:17.084Z,11.00
2023-03-11T17:44:52.078Z,11.00
2023-03-11T17:47:25.431Z,11.10
2023-03-11T17:49:57.596Z,11.20
2023-03-11T17:52:31.085Z,11.70
2023-03-11T17:55:02.813Z,10.40
2023-03-11T17:57:45.565Z,10.20
2023-03-11T18:00:19.479Z,10.30
2023-03-11T18:02:57.986Z,8.90
2023-03-11T18:05:29.202Z,8.60
2023-03-11T18:08:01.994Z,8.70
2023-03-11T18:13:00.782Z,8.40
2023-03-11T18:15:31.635Z,10.10
2023-03-11T18:18:05.325Z,10.10
2023-03-11T18:20:39.482Z,8.90
2023-03-11T18:23:11.309Z,9.10
2023-03-11T18:25:42.846Z,10.00
2023-03-11T18:28:12.564Z,11.10
2023-03-11T18:30:44.594Z,13.20
2023-03-11T18:33:17.120Z,16.00
2023-03-11T18:35:49.246Z,17.10
2023-03-11T18:38:26.045Z,25.90
2023-03-11T18:41:03.404Z,33.60
2023-03-11T18:43:31.244Z,40.60
2023-03-11T18:46:03.198Z,40.90
2023-03-11T18:48:33.506Z,42.60
2023-03-11T18:51:07.029Z,44.20
2023-03-11T18:53:37.155Z,42.60
2023-03-11T18:56:16.191Z,38.60
2023-03-11T18:58:47.316Z,36.20
2023-03-11T19:01:44.161Z,38.70
2023-03-11T19:04:12.874Z,41.70
2023-03-11T19:07:04.623Z,38.40
2023-03-11T19:09:47.414Z,35.90
2023-03-11T19:12:20.347Z,31.60
2023-03-11T19:14:56.652Z,26.20
2023-03-11T19:17:26.692Z,32.70
2023-03-11T19:19:59.052Z,24.00
2023-03-11T19:22:35.933Z,24.30
2023-03-11T19:25:05.996Z,32.60
2023-03-11T19:27:40.359Z,40.20
2023-03-11T19:30:09.564Z,41.00
2023-03-11T19:32:38.815Z,28.80
2023-03-11T19:35:13.748Z,16.40
2023-03-11T19:38:13.164Z,10.50
2023-03-11T19:40:46.564Z,8.20
2023-03-11T19:43:17.937Z,7.30
2023-03-11T19:49:00.454Z,6.90
2023-03-11T19:51:50.021Z,7.60
2023-03-11T19:54:26.430Z,7.20
2023-03-11T19:57:21.246Z,7.60
2023-03-11T20:00:00.826Z,7.00
